Contact Us:
Email: info@sawbill.com
Phone: (218)663-7150
Fax: (218)663-7980
Mail: 4620 Sawbill Trail
Box 2129
Tofte, MN 55615


Powered by
Movable Type 3.15
 
Sawbill Weather History Archives: October 2005
Current Sawbill Weather History | « September 2005 | November 2005 »


Date

High
Temperature

Low
Temperature

Barometric
Pressure

Relative
Humidity 7AM

9 AM
Temperature

Moisture

Snow

10/31/05 47 38 29.89 82% 38 .06"
10/30/05 51 43 29.95 85% 43 Trace
10/29/05 58 36 29.91 87% 51 Trace
10/28/05 56 32 30.07 82% 36 0
10/27/05 53 29 30.26 78% 31 0
10/26/05 47 30 30.27 82% 34 Trace
10/25/05 42 37 30.17 81% 39 .04"
10/24/05 42 36 30.18 78% 37 0
10/23/05 44 33 30.24 78% 36 .10"
10/22/05 42 33 30.15 82% 33 .07"
10/21/05 41 31 29.89 81% 38 .3"
10/20/05 51 29 30.08 75% 30 0
10/19/05 50 33 30.14 82% 33 0
10/18/05 42 35 30.02 85% 35 .80" .5"
10/17/05 55 34 29.85 82% 35 0
10/16/05 56 40 29.59 88% 46 .46"
10/15/05 51 40 30.19 76% 40 0
10/14/05 63 46 29.96 65% 47 0
10/13/05 55 46 29.92 78% 47 Trace
10/12/05 58 47 30.02 86% 48 0"
10/11/05 65 36 30.15 85% 49 0
10/10/05 65 34 30.25 81% 35 0
10/9/05 59 36 30.24 84% 38 0
10/8/05 48 33 30.17 86% 41 0
10/7/05 48 31 30.22 81% 36 Trace Trace
10/6/05 46 31 30.32 76% 31 .08" Trace
10/5/05 44 39 29.83 84% 39 .60"
10/4/05 52 43 30.02 83% 43 .51"
10/3/05 74 51 30.15 79% 51 .75"
10/2/05 76 53 29.95 89% 67 0
10/1/05 77 51 30.00 89% 53 0
 


Home I Trip Planning I Rentals and Outfitting I Reservations I Campgrounds I Sawbill Store I Sawbill News I Contact

© 1997 - 2017, Sawbill Canoe Outfitters, Inc. I Privacy Policy